sensor_id;sensor_type;location;lat;lon;timestamp;P1;durP1;ratioP1;P2;durP2;ratioP2
66143;SDS011;52947;50.842;6.084;2022-12-05T00:01:16;32.13;;;17.20;;
66143;SDS011;52947;50.842;6.084;2022-12-05T00:03:46;29.80;;;16.23;;
66143;SDS011;52947;50.842;6.084;2022-12-05T00:06:16;32.15;;;16.65;;
66143;SDS011;52947;50.842;6.084;2022-12-05T00:08:45;33.30;;;18.05;;
66143;SDS011;52947;50.842;6.084;2022-12-05T00:11:14;40.95;;;19.27;;
66143;SDS011;52947;50.842;6.084;2022-12-05T00:13:44;33.78;;;17.23;;
66143;SDS011;52947;50.842;6.084;2022-12-05T00:16:13;43.72;;;19.13;;
66143;SDS011;52947;50.842;6.084;2022-12-05T00:18:42;38.15;;;21.27;;
66143;SDS011;52947;50.842;6.084;2022-12-05T00:21:11;40.00;;;19.60;;
66143;SDS011;52947;50.842;6.084;2022-12-05T00:23:40;38.42;;;19.25;;
66143;SDS011;52947;50.842;6.084;2022-12-05T00:26:10;38.70;;;19.40;;
66143;SDS011;52947;50.842;6.084;2022-12-05T00:28:38;40.22;;;20.60;;
66143;SDS011;52947;50.842;6.084;2022-12-05T00:31:07;41.40;;;20.55;;
66143;SDS011;52947;50.842;6.084;2022-12-05T00:33:36;47.67;;;21.63;;
66143;SDS011;52947;50.842;6.084;2022-12-05T00:36:05;42.60;;;22.83;;
66143;SDS011;52947;50.842;6.084;2022-12-05T00:38:35;38.80;;;21.63;;
66143;SDS011;52947;50.842;6.084;2022-12-05T00:41:03;42.33;;;20.08;;
66143;SDS011;52947;50.842;6.084;2022-12-05T00:43:32;37.40;;;19.23;;
66143;SDS011;52947;50.842;6.084;2022-12-05T00:46:01;37.40;;;19.23;;
66143;SDS011;52947;50.842;6.084;2022-12-05T00:48:29;38.40;;;19.48;;
66143;SDS011;52947;50.842;6.084;2022-12-05T00:51:01;42.38;;;20.83;;
66143;SDS011;52947;50.842;6.084;2022-12-05T00:53:29;43.70;;;21.08;;
66143;SDS011;52947;50.842;6.084;2022-12-05T00:56:00;40.58;;;20.52;;
66143;SDS011;52947;50.842;6.084;2022-12-05T00:58:29;46.20;;;20.15;;
66143;SDS011;52947;50.842;6.084;2022-12-05T01:00:59;41.40;;;18.98;;
66143;SDS011;52947;50.842;6.084;2022-12-05T01:03:32;47.22;;;22.27;;
66143;SDS011;52947;50.842;6.084;2022-12-05T01:06:00;41.30;;;19.10;;
66143;SDS011;52947;50.842;6.084;2022-12-05T01:08:31;44.55;;;20.00;;
66143;SDS011;52947;50.842;6.084;2022-12-05T01:11:00;40.35;;;20.52;;
66143;SDS011;52947;50.842;6.084;2022-12-05T01:13:28;40.17;;;20.25;;
66143;SDS011;52947;50.842;6.084;2022-12-05T01:15:58;41.45;;;19.65;;
66143;SDS011;52947;50.842;6.084;2022-12-05T01:18:27;42.25;;;20.42;;
66143;SDS011;52947;50.842;6.084;2022-12-05T01:20:55;44.50;;;20.55;;
66143;SDS011;52947;50.842;6.084;2022-12-05T01:23:23;50.70;;;22.30;;
66143;SDS011;52947;50.842;6.084;2022-12-05T01:25:51;45.97;;;22.42;;
66143;SDS011;52947;50.842;6.084;2022-12-05T01:28:19;45.60;;;20.63;;
66143;SDS011;52947;50.842;6.084;2022-12-05T01:30:48;44.20;;;21.50;;
66143;SDS011;52947;50.842;6.084;2022-12-05T01:33:18;44.45;;;20.40;;
66143;SDS011;52947;50.842;6.084;2022-12-05T01:35:45;43.63;;;20.40;;
66143;SDS011;52947;50.842;6.084;2022-12-05T01:38:13;49.90;;;21.95;;
66143;SDS011;52947;50.842;6.084;2022-12-05T01:40:41;47.05;;;20.83;;
66143;SDS011;52947;50.842;6.084;2022-12-05T01:43:09;47.63;;;22.25;;
66143;SDS011;52947;50.842;6.084;2022-12-05T01:45:41;54.20;;;21.42;;
66143;SDS011;52947;50.842;6.084;2022-12-05T01:48:13;40.83;;;19.85;;
66143;SDS011;52947;50.842;6.084;2022-12-05T01:50:44;41.08;;;20.25;;
66143;SDS011;52947;50.842;6.084;2022-12-05T01:53:13;43.30;;;19.75;;
66143;SDS011;52947;50.842;6.084;2022-12-05T01:55:42;40.35;;;18.85;;
66143;SDS011;52947;50.842;6.084;2022-12-05T01:58:12;40.50;;;19.48;;
66143;SDS011;52947;50.842;6.084;2022-12-05T02:00:40;43.00;;;19.75;;
66143;SDS011;52947;50.842;6.084;2022-12-05T02:03:10;37.40;;;19.23;;
66143;SDS011;52947;50.842;6.084;2022-12-05T02:05:42;42.95;;;20.08;;
66143;SDS011;52947;50.842;6.084;2022-12-05T02:08:13;43.03;;;18.30;;
66143;SDS011;52947;50.842;6.084;2022-12-05T02:10:41;39.25;;;18.58;;
66143;SDS011;52947;50.842;6.084;2022-12-05T02:13:26;34.88;;;17.25;;
66143;SDS011;52947;50.842;6.084;2022-12-05T02:16:08;42.00;;;18.23;;
66143;SDS011;52947;50.842;6.084;2022-12-05T02:18:45;37.05;;;18.25;;
66143;SDS011;52947;50.842;6.084;2022-12-05T02:27:38;36.70;;;18.10;;
66143;SDS011;52947;50.842;6.084;2022-12-05T02:30:17;40.15;;;17.63;;
66143;SDS011;52947;50.842;6.084;2022-12-05T02:32:48;37.47;;;18.77;;
66143;SDS011;52947;50.842;6.084;2022-12-05T02:35:26;39.25;;;18.23;;
66143;SDS011;52947;50.842;6.084;2022-12-05T02:38:03;35.88;;;17.85;;
66143;SDS011;52947;50.842;6.084;2022-12-05T02:40:46;32.70;;;17.13;;
66143;SDS011;52947;50.842;6.084;2022-12-05T02:43:19;34.45;;;16.38;;
66143;SDS011;52947;50.842;6.084;2022-12-05T02:45:54;42.17;;;17.02;;
66143;SDS011;52947;50.842;6.084;2022-12-05T02:48:26;38.20;;;17.10;;
66143;SDS011;52947;50.842;6.084;2022-12-05T02:53:25;38.65;;;17.45;;
66143;SDS011;52947;50.842;6.084;2022-12-05T02:55:54;33.65;;;17.02;;
66143;SDS011;52947;50.842;6.084;2022-12-05T02:58:23;36.40;;;17.30;;
66143;SDS011;52947;50.842;6.084;2022-12-05T03:00:56;33.63;;;16.83;;
66143;SDS011;52947;50.842;6.084;2022-12-05T03:03:25;34.65;;;16.50;;
66143;SDS011;52947;50.842;6.084;2022-12-05T03:05:55;30.15;;;16.30;;
66143;SDS011;52947;50.842;6.084;2022-12-05T03:08:29;33.97;;;16.77;;
66143;SDS011;52947;50.842;6.084;2022-12-05T03:10:59;33.97;;;16.30;;
66143;SDS011;52947;50.842;6.084;2022-12-05T03:13:30;32.72;;;16.45;;
66143;SDS011;52947;50.842;6.084;2022-12-05T03:16:04;36.42;;;16.60;;
66143;SDS011;52947;50.842;6.084;2022-12-05T03:18:36;35.80;;;17.73;;
66143;SDS011;52947;50.842;6.084;2022-12-05T03:21:07;29.23;;;15.10;;
66143;SDS011;52947;50.842;6.084;2022-12-05T03:23:40;33.15;;;15.63;;
66143;SDS011;52947;50.842;6.084;2022-12-05T03:26:15;34.28;;;16.33;;
66143;SDS011;52947;50.842;6.084;2022-12-05T03:28:53;34.05;;;15.40;;
66143;SDS011;52947;50.842;6.084;2022-12-05T03:31:28;35.40;;;16.83;;
66143;SDS011;52947;50.842;6.084;2022-12-05T03:34:04;36.70;;;16.05;;
66143;SDS011;52947;50.842;6.084;2022-12-05T03:36:36;30.95;;;15.25;;
66143;SDS011;52947;50.842;6.084;2022-12-05T03:39:07;35.25;;;16.48;;
66143;SDS011;52947;50.842;6.084;2022-12-05T03:41:40;32.42;;;15.95;;
66143;SDS011;52947;50.842;6.084;2022-12-05T03:44:13;32.40;;;15.50;;
66143;SDS011;52947;50.842;6.084;2022-12-05T03:46:49;32.47;;;16.88;;
66143;SDS011;52947;50.842;6.084;2022-12-05T03:49:23;33.97;;;15.93;;
66143;SDS011;52947;50.842;6.084;2022-12-05T03:52:02;31.88;;;16.20;;
66143;SDS011;52947;50.842;6.084;2022-12-05T03:54:35;28.83;;;15.18;;
66143;SDS011;52947;50.842;6.084;2022-12-05T03:57:07;33.53;;;15.88;;
66143;SDS011;52947;50.842;6.084;2022-12-05T03:59:41;31.02;;;14.80;;
66143;SDS011;52947;50.842;6.084;2022-12-05T04:02:15;24.88;;;13.80;;
66143;SDS011;52947;50.842;6.084;2022-12-05T04:04:47;32.03;;;15.10;;
66143;SDS011;52947;50.842;6.084;2022-12-05T04:07:20;30.45;;;16.55;;
66143;SDS011;52947;50.842;6.084;2022-12-05T04:09:51;28.63;;;15.32;;
66143;SDS011;52947;50.842;6.084;2022-12-05T04:12:27;30.60;;;14.57;;
66143;SDS011;52947;50.842;6.084;2022-12-05T04:14:58;33.28;;;16.33;;
66143;SDS011;52947;50.842;6.084;2022-12-05T04:17:31;29.83;;;15.48;;
66143;SDS011;52947;50.842;6.084;2022-12-05T04:20:03;27.95;;;15.23;;
66143;SDS011;52947;50.842;6.084;2022-12-05T04:22:54;28.98;;;14.93;;
66143;SDS011;52947;50.842;6.084;2022-12-05T04:25:22;28.67;;;15.35;;
66143;SDS011;52947;50.842;6.084;2022-12-05T04:28:02;28.17;;;14.52;;
66143;SDS011;52947;50.842;6.084;2022-12-05T04:30:45;24.98;;;13.15;;
66143;SDS011;52947;50.842;6.084;2022-12-05T04:33:19;25.58;;;14.07;;
66143;SDS011;52947;50.842;6.084;2022-12-05T04:35:56;23.95;;;13.80;;
66143;SDS011;52947;50.842;6.084;2022-12-05T04:38:30;26.63;;;13.70;;
66143;SDS011;52947;50.842;6.084;2022-12-05T04:41:01;24.63;;;14.23;;
66143;SDS011;52947;50.842;6.084;2022-12-05T04:43:32;26.58;;;14.65;;
66143;SDS011;52947;50.842;6.084;2022-12-05T04:46:03;25.55;;;13.50;;
66143;SDS011;52947;50.842;6.084;2022-12-05T04:48:36;28.58;;;14.40;;
66143;SDS011;52947;50.842;6.084;2022-12-05T04:51:06;24.70;;;13.90;;
66143;SDS011;52947;50.842;6.084;2022-12-05T04:53:35;24.65;;;12.32;;
66143;SDS011;52947;50.842;6.084;2022-12-05T04:56:04;28.98;;;13.30;;
66143;SDS011;52947;50.842;6.084;2022-12-05T04:58:33;22.40;;;12.90;;
66143;SDS011;52947;50.842;6.084;2022-12-05T05:01:02;21.80;;;12.13;;
66143;SDS011;52947;50.842;6.084;2022-12-05T05:03:35;19.58;;;11.52;;
66143;SDS011;52947;50.842;6.084;2022-12-05T05:06:09;20.35;;;11.60;;
66143;SDS011;52947;50.842;6.084;2022-12-05T05:08:45;20.23;;;11.05;;
66143;SDS011;52947;50.842;6.084;2022-12-05T05:11:15;20.52;;;11.65;;
66143;SDS011;52947;50.842;6.084;2022-12-05T05:13:45;17.83;;;11.40;;
66143;SDS011;52947;50.842;6.084;2022-12-05T05:16:14;19.90;;;11.13;;
66143;SDS011;52947;50.842;6.084;2022-12-05T05:18:45;18.98;;;11.82;;
66143;SDS011;52947;50.842;6.084;2022-12-05T05:21:18;19.85;;;10.90;;
66143;SDS011;52947;50.842;6.084;2022-12-05T05:23:47;22.00;;;12.90;;
66143;SDS011;52947;50.842;6.084;2022-12-05T05:26:15;21.08;;;13.38;;
66143;SDS011;52947;50.842;6.084;2022-12-05T05:28:44;19.77;;;11.68;;
66143;SDS011;52947;50.842;6.084;2022-12-05T05:31:12;18.40;;;11.17;;
66143;SDS011;52947;50.842;6.084;2022-12-05T05:33:40;17.50;;;10.80;;
66143;SDS011;52947;50.842;6.084;2022-12-05T05:36:10;20.38;;;11.43;;
66143;SDS011;52947;50.842;6.084;2022-12-05T05:38:40;27.13;;;13.90;;
66143;SDS011;52947;50.842;6.084;2022-12-05T05:41:11;21.80;;;11.95;;
66143;SDS011;52947;50.842;6.084;2022-12-05T05:43:40;18.45;;;10.52;;
66143;SDS011;52947;50.842;6.084;2022-12-05T05:46:09;17.97;;;11.10;;
66143;SDS011;52947;50.842;6.084;2022-12-05T05:48:37;17.58;;;10.82;;
66143;SDS011;52947;50.842;6.084;2022-12-05T05:51:06;20.30;;;11.68;;
66143;SDS011;52947;50.842;6.084;2022-12-05T05:53:37;19.05;;;10.75;;
66143;SDS011;52947;50.842;6.084;2022-12-05T05:56:06;19.23;;;11.23;;
66143;SDS011;52947;50.842;6.084;2022-12-05T05:58:36;20.85;;;11.93;;
66143;SDS011;52947;50.842;6.084;2022-12-05T06:01:05;21.17;;;11.80;;
66143;SDS011;52947;50.842;6.084;2022-12-05T06:03:33;22.85;;;12.40;;
66143;SDS011;52947;50.842;6.084;2022-12-05T06:06:03;19.10;;;11.70;;
66143;SDS011;52947;50.842;6.084;2022-12-05T06:08:33;21.42;;;11.75;;
66143;SDS011;52947;50.842;6.084;2022-12-05T06:11:05;18.08;;;11.82;;
66143;SDS011;52947;50.842;6.084;2022-12-05T06:13:34;18.00;;;11.13;;
66143;SDS011;52947;50.842;6.084;2022-12-05T06:16:03;18.63;;;11.55;;
66143;SDS011;52947;50.842;6.084;2022-12-05T06:18:32;18.17;;;10.93;;
66143;SDS011;52947;50.842;6.084;2022-12-05T06:21:00;18.63;;;10.63;;
66143;SDS011;52947;50.842;6.084;2022-12-05T06:23:29;18.25;;;10.77;;
66143;SDS011;52947;50.842;6.084;2022-12-05T06:25:57;17.13;;;11.00;;
66143;SDS011;52947;50.842;6.084;2022-12-05T06:28:26;15.55;;;10.13;;
66143;SDS011;52947;50.842;6.084;2022-12-05T06:30:54;17.13;;;10.57;;
66143;SDS011;52947;50.842;6.084;2022-12-05T06:33:22;16.75;;;10.57;;
66143;SDS011;52947;50.842;6.084;2022-12-05T06:36:00;17.33;;;10.90;;
66143;SDS011;52947;50.842;6.084;2022-12-05T06:38:28;15.25;;;9.88;;
66143;SDS011;52947;50.842;6.084;2022-12-05T06:40:56;16.02;;;10.30;;
66143;SDS011;52947;50.842;6.084;2022-12-05T06:43:24;17.23;;;11.13;;
66143;SDS011;52947;50.842;6.084;2022-12-05T06:45:53;17.83;;;10.90;;
66143;SDS011;52947;50.842;6.084;2022-12-05T06:48:22;16.30;;;10.55;;
66143;SDS011;52947;50.842;6.084;2022-12-05T06:50:50;15.77;;;10.32;;
66143;SDS011;52947;50.842;6.084;2022-12-05T06:53:19;19.50;;;10.57;;
66143;SDS011;52947;50.842;6.084;2022-12-05T06:55:54;17.33;;;10.77;;
66143;SDS011;52947;50.842;6.084;2022-12-05T06:58:22;20.58;;;11.98;;
66143;SDS011;52947;50.842;6.084;2022-12-05T07:00:50;27.38;;;14.95;;
66143;SDS011;52947;50.842;6.084;2022-12-05T07:03:38;22.63;;;14.75;;
66143;SDS011;52947;50.842;6.084;2022-12-05T07:06:06;19.52;;;11.65;;
66143;SDS011;52947;50.842;6.084;2022-12-05T07:08:34;27.00;;;12.07;;
66143;SDS011;52947;50.842;6.084;2022-12-05T07:11:02;28.92;;;18.02;;
66143;SDS011;52947;50.842;6.084;2022-12-05T07:13:30;25.48;;;15.80;;
66143;SDS011;52947;50.842;6.084;2022-12-05T07:15:58;20.67;;;13.15;;
66143;SDS011;52947;50.842;6.084;2022-12-05T07:18:26;20.13;;;13.25;;
66143;SDS011;52947;50.842;6.084;2022-12-05T07:20:56;28.20;;;21.08;;
66143;SDS011;52947;50.842;6.084;2022-12-05T07:23:41;21.48;;;13.93;;
66143;SDS011;52947;50.842;6.084;2022-12-05T07:26:10;18.27;;;12.13;;
66143;SDS011;52947;50.842;6.084;2022-12-05T07:28:39;17.95;;;12.40;;
66143;SDS011;52947;50.842;6.084;2022-12-05T07:31:08;16.25;;;10.32;;
66143;SDS011;52947;50.842;6.084;2022-12-05T07:33:37;16.85;;;10.82;;
66143;SDS011;52947;50.842;6.084;2022-12-05T07:36:07;18.58;;;11.20;;
66143;SDS011;52947;50.842;6.084;2022-12-05T07:38:36;21.08;;;12.90;;
66143;SDS011;52947;50.842;6.084;2022-12-05T07:41:05;21.20;;;12.32;;
66143;SDS011;52947;50.842;6.084;2022-12-05T07:43:38;21.50;;;13.02;;
66143;SDS011;52947;50.842;6.084;2022-12-05T07:46:07;20.48;;;12.48;;
66143;SDS011;52947;50.842;6.084;2022-12-05T07:48:36;21.55;;;12.80;;
66143;SDS011;52947;50.842;6.084;2022-12-05T07:51:07;21.83;;;13.03;;
66143;SDS011;52947;50.842;6.084;2022-12-05T07:53:36;26.02;;;13.70;;
66143;SDS011;52947;50.842;6.084;2022-12-05T07:56:07;21.77;;;13.48;;
66143;SDS011;52947;50.842;6.084;2022-12-05T07:58:36;22.30;;;13.57;;
66143;SDS011;52947;50.842;6.084;2022-12-05T08:01:07;22.80;;;13.07;;
66143;SDS011;52947;50.842;6.084;2022-12-05T08:03:37;27.92;;;14.18;;
66143;SDS011;52947;50.842;6.084;2022-12-05T08:06:07;23.52;;;12.73;;
66143;SDS011;52947;50.842;6.084;2022-12-05T08:08:36;22.85;;;12.85;;
66143;SDS011;52947;50.842;6.084;2022-12-05T08:11:05;18.70;;;12.50;;
66143;SDS011;52947;50.842;6.084;2022-12-05T08:13:35;21.63;;;12.40;;
66143;SDS011;52947;50.842;6.084;2022-12-05T08:16:04;24.65;;;14.43;;
66143;SDS011;52947;50.842;6.084;2022-12-05T08:18:33;23.70;;;15.05;;
66143;SDS011;52947;50.842;6.084;2022-12-05T08:21:02;23.83;;;14.07;;
66143;SDS011;52947;50.842;6.084;2022-12-05T08:23:31;23.52;;;14.20;;
66143;SDS011;52947;50.842;6.084;2022-12-05T08:26:00;24.80;;;15.38;;
66143;SDS011;52947;50.842;6.084;2022-12-05T08:28:29;23.38;;;14.95;;
66143;SDS011;52947;50.842;6.084;2022-12-05T08:31:02;26.95;;;16.10;;
66143;SDS011;52947;50.842;6.084;2022-12-05T08:33:31;27.40;;;16.45;;
66143;SDS011;52947;50.842;6.084;2022-12-05T08:36:00;21.13;;;14.60;;
66143;SDS011;52947;50.842;6.084;2022-12-05T08:38:28;24.80;;;14.55;;
66143;SDS011;52947;50.842;6.084;2022-12-05T08:41:00;22.58;;;14.13;;
66143;SDS011;52947;50.842;6.084;2022-12-05T08:43:28;19.90;;;13.02;;
66143;SDS011;52947;50.842;6.084;2022-12-05T08:45:57;20.38;;;13.07;;
66143;SDS011;52947;50.842;6.084;2022-12-05T08:48:26;24.10;;;14.25;;
66143;SDS011;52947;50.842;6.084;2022-12-05T08:50:56;22.40;;;13.98;;
66143;SDS011;52947;50.842;6.084;2022-12-05T08:53:23;24.48;;;15.07;;
66143;SDS011;52947;50.842;6.084;2022-12-05T08:55:51;21.05;;;14.18;;
66143;SDS011;52947;50.842;6.084;2022-12-05T08:58:21;24.00;;;14.70;;
66143;SDS011;52947;50.842;6.084;2022-12-05T09:00:48;24.48;;;15.27;;
66143;SDS011;52947;50.842;6.084;2022-12-05T09:03:16;22.65;;;15.10;;
66143;SDS011;52947;50.842;6.084;2022-12-05T09:05:44;26.15;;;16.88;;
66143;SDS011;52947;50.842;6.084;2022-12-05T09:08:12;25.08;;;15.10;;
66143;SDS011;52947;50.842;6.084;2022-12-05T09:10:40;25.95;;;15.57;;
66143;SDS011;52947;50.842;6.084;2022-12-05T09:13:07;24.23;;;15.15;;
66143;SDS011;52947;50.842;6.084;2022-12-05T09:15:38;25.52;;;15.65;;
66143;SDS011;52947;50.842;6.084;2022-12-05T09:18:06;23.65;;;14.45;;
66143;SDS011;52947;50.842;6.084;2022-12-05T09:20:33;23.48;;;15.18;;
66143;SDS011;52947;50.842;6.084;2022-12-05T09:23:02;23.02;;;13.77;;
66143;SDS011;52947;50.842;6.084;2022-12-05T09:25:30;23.05;;;14.48;;
66143;SDS011;52947;50.842;6.084;2022-12-05T09:27:58;25.23;;;14.25;;
66143;SDS011;52947;50.842;6.084;2022-12-05T09:30:25;22.77;;;13.75;;
66143;SDS011;52947;50.842;6.084;2022-12-05T09:32:54;25.35;;;14.93;;
66143;SDS011;52947;50.842;6.084;2022-12-05T09:35:23;23.08;;;14.80;;
66143;SDS011;52947;50.842;6.084;2022-12-05T09:37:51;25.77;;;14.43;;
66143;SDS011;52947;50.842;6.084;2022-12-05T09:40:22;28.95;;;16.80;;
66143;SDS011;52947;50.842;6.084;2022-12-05T09:42:55;24.53;;;14.37;;
66143;SDS011;52947;50.842;6.084;2022-12-05T09:45:29;23.83;;;13.50;;
66143;SDS011;52947;50.842;6.084;2022-12-05T09:48:05;21.40;;;13.95;;
66143;SDS011;52947;50.842;6.084;2022-12-05T09:50:39;21.58;;;13.05;;
66143;SDS011;52947;50.842;6.084;2022-12-05T09:53:12;23.02;;;12.75;;
66143;SDS011;52947;50.842;6.084;2022-12-05T09:55:51;22.67;;;12.85;;
66143;SDS011;52947;50.842;6.084;2022-12-05T09:58:24;24.05;;;14.02;;
66143;SDS011;52947;50.842;6.084;2022-12-05T10:00:58;25.40;;;13.68;;
66143;SDS011;52947;50.842;6.084;2022-12-05T10:03:34;22.00;;;13.75;;
66143;SDS011;52947;50.842;6.084;2022-12-05T10:06:10;22.00;;;13.38;;
66143;SDS011;52947;50.842;6.084;2022-12-05T10:08:46;23.88;;;13.13;;
66143;SDS011;52947;50.842;6.084;2022-12-05T10:11:40;22.90;;;13.20;;
66143;SDS011;52947;50.842;6.084;2022-12-05T10:14:15;22.73;;;13.80;;
66143;SDS011;52947;50.842;6.084;2022-12-05T10:16:50;19.23;;;12.63;;
66143;SDS011;52947;50.842;6.084;2022-12-05T10:19:23;19.98;;;12.63;;
66143;SDS011;52947;50.842;6.084;2022-12-05T10:21:56;21.33;;;12.85;;
66143;SDS011;52947;50.842;6.084;2022-12-05T10:24:29;24.90;;;13.30;;
66143;SDS011;52947;50.842;6.084;2022-12-05T10:27:03;21.70;;;13.02;;
66143;SDS011;52947;50.842;6.084;2022-12-05T10:29:34;25.23;;;14.00;;
66143;SDS011;52947;50.842;6.084;2022-12-05T10:32:09;28.00;;;16.30;;
66143;SDS011;52947;50.842;6.084;2022-12-05T10:34:43;26.50;;;14.77;;
66143;SDS011;52947;50.842;6.084;2022-12-05T10:37:13;25.63;;;14.48;;
66143;SDS011;52947;50.842;6.084;2022-12-05T10:39:42;23.73;;;15.13;;
66143;SDS011;52947;50.842;6.084;2022-12-05T10:42:11;25.15;;;13.95;;
66143;SDS011;52947;50.842;6.084;2022-12-05T10:44:41;37.88;;;20.20;;
66143;SDS011;52947;50.842;6.084;2022-12-05T10:47:09;41.63;;;20.05;;
66143;SDS011;52947;50.842;6.084;2022-12-05T10:49:38;37.20;;;19.10;;
66143;SDS011;52947;50.842;6.084;2022-12-05T10:52:07;43.88;;;20.67;;
66143;SDS011;52947;50.842;6.084;2022-12-05T10:54:38;30.63;;;16.10;;
66143;SDS011;52947;50.842;6.084;2022-12-05T10:57:18;27.15;;;14.88;;
66143;SDS011;52947;50.842;6.084;2022-12-05T11:02:20;24.20;;;13.70;;
66143;SDS011;52947;50.842;6.084;2022-12-05T11:04:50;22.40;;;13.98;;
66143;SDS011;52947;50.842;6.084;2022-12-05T11:07:23;20.93;;;13.43;;
66143;SDS011;52947;50.842;6.084;2022-12-05T11:09:56;21.20;;;12.85;;
66143;SDS011;52947;50.842;6.084;2022-12-05T11:12:26;21.35;;;12.65;;
66143;SDS011;52947;50.842;6.084;2022-12-05T11:15:03;20.13;;;12.13;;
66143;SDS011;52947;50.842;6.084;2022-12-05T11:17:33;21.70;;;12.48;;
66143;SDS011;52947;50.842;6.084;2022-12-05T11:20:11;18.55;;;12.90;;
66143;SDS011;52947;50.842;6.084;2022-12-05T11:23:16;17.38;;;10.90;;
66143;SDS011;52947;50.842;6.084;2022-12-05T11:25:50;16.35;;;10.95;;
66143;SDS011;52947;50.842;6.084;2022-12-05T11:28:23;17.80;;;11.82;;
66143;SDS011;52947;50.842;6.084;2022-12-05T11:30:59;17.42;;;11.00;;
66143;SDS011;52947;50.842;6.084;2022-12-05T11:33:30;16.50;;;11.23;;
66143;SDS011;52947;50.842;6.084;2022-12-05T11:36:02;20.70;;;12.85;;
66143;SDS011;52947;50.842;6.084;2022-12-05T11:38:33;21.55;;;12.93;;
66143;SDS011;52947;50.842;6.084;2022-12-05T11:41:05;22.38;;;13.10;;
66143;SDS011;52947;50.842;6.084;2022-12-05T11:43:49;24.23;;;13.57;;
66143;SDS011;52947;50.842;6.084;2022-12-05T11:46:31;19.35;;;13.02;;
66143;SDS011;52947;50.842;6.084;2022-12-05T11:49:15;18.65;;;12.77;;
66143;SDS011;52947;50.842;6.084;2022-12-05T11:52:08;18.73;;;12.07;;
66143;SDS011;52947;50.842;6.084;2022-12-05T11:54:49;20.55;;;12.90;;
66143;SDS011;52947;50.842;6.084;2022-12-05T11:57:36;19.92;;;12.52;;
66143;SDS011;52947;50.842;6.084;2022-12-05T12:00:20;19.50;;;12.53;;
66143;SDS011;52947;50.842;6.084;2022-12-05T12:06:01;23.13;;;13.70;;
66143;SDS011;52947;50.842;6.084;2022-12-05T12:08:41;24.90;;;13.77;;
66143;SDS011;52947;50.842;6.084;2022-12-05T12:11:19;21.45;;;13.35;;
66143;SDS011;52947;50.842;6.084;2022-12-05T12:13:56;25.63;;;12.73;;
66143;SDS011;52947;50.842;6.084;2022-12-05T12:16:33;19.58;;;12.50;;
66143;SDS011;52947;50.842;6.084;2022-12-05T12:22:03;23.38;;;14.43;;
66143;SDS011;52947;50.842;6.084;2022-12-05T12:24:48;26.65;;;13.95;;
66143;SDS011;52947;50.842;6.084;2022-12-05T12:27:29;25.58;;;14.20;;
66143;SDS011;52947;50.842;6.084;2022-12-05T12:30:05;25.77;;;14.88;;
66143;SDS011;52947;50.842;6.084;2022-12-05T12:32:41;34.25;;;15.60;;
66143;SDS011;52947;50.842;6.084;2022-12-05T12:35:21;27.48;;;15.30;;
66143;SDS011;52947;50.842;6.084;2022-12-05T12:38:06;26.10;;;15.45;;
66143;SDS011;52947;50.842;6.084;2022-12-05T12:40:45;25.88;;;14.52;;
66143;SDS011;52947;50.842;6.084;2022-12-05T12:43:21;24.58;;;15.02;;
66143;SDS011;52947;50.842;6.084;2022-12-05T12:46:22;23.50;;;14.68;;
66143;SDS011;52947;50.842;6.084;2022-12-05T12:49:10;28.75;;;15.63;;
66143;SDS011;52947;50.842;6.084;2022-12-05T12:51:50;26.63;;;15.80;;
66143;SDS011;52947;50.842;6.084;2022-12-05T12:54:26;27.88;;;16.48;;
66143;SDS011;52947;50.842;6.084;2022-12-05T12:57:30;33.80;;;18.70;;
66143;SDS011;52947;50.842;6.084;2022-12-05T13:00:22;26.63;;;15.60;;
66143;SDS011;52947;50.842;6.084;2022-12-05T13:02:58;22.88;;;13.65;;
66143;SDS011;52947;50.842;6.084;2022-12-05T13:05:33;25.90;;;16.35;;
66143;SDS011;52947;50.842;6.084;2022-12-05T13:08:09;26.98;;;15.65;;
66143;SDS011;52947;50.842;6.084;2022-12-05T13:10:41;27.65;;;15.75;;
66143;SDS011;52947;50.842;6.084;2022-12-05T13:13:12;27.20;;;15.68;;
66143;SDS011;52947;50.842;6.084;2022-12-05T13:15:44;27.33;;;16.25;;
66143;SDS011;52947;50.842;6.084;2022-12-05T13:18:16;33.03;;;17.65;;
66143;SDS011;52947;50.842;6.084;2022-12-05T13:20:48;39.15;;;21.10;;
66143;SDS011;52947;50.842;6.084;2022-12-05T13:23:18;35.05;;;19.88;;
66143;SDS011;52947;50.842;6.084;2022-12-05T13:25:49;32.78;;;16.55;;
66143;SDS011;52947;50.842;6.084;2022-12-05T13:28:22;34.35;;;17.25;;
66143;SDS011;52947;50.842;6.084;2022-12-05T13:30:55;30.63;;;16.15;;
66143;SDS011;52947;50.842;6.084;2022-12-05T13:33:28;28.88;;;17.05;;
66143;SDS011;52947;50.842;6.084;2022-12-05T13:36:02;35.85;;;16.75;;
66143;SDS011;52947;50.842;6.084;2022-12-05T13:38:54;30.13;;;16.27;;
66143;SDS011;52947;50.842;6.084;2022-12-05T13:41:45;30.80;;;14.32;;
66143;SDS011;52947;50.842;6.084;2022-12-05T13:44:36;27.13;;;15.05;;
66143;SDS011;52947;50.842;6.084;2022-12-05T13:47:21;27.80;;;14.70;;
66143;SDS011;52947;50.842;6.084;2022-12-05T13:49:54;27.30;;;15.60;;
66143;SDS011;52947;50.842;6.084;2022-12-05T13:52:27;27.58;;;15.27;;
66143;SDS011;52947;50.842;6.084;2022-12-05T13:54:59;28.33;;;17.00;;
66143;SDS011;52947;50.842;6.084;2022-12-05T13:57:45;26.23;;;15.73;;
66143;SDS011;52947;50.842;6.084;2022-12-05T14:00:19;76.32;;;43.35;;
66143;SDS011;52947;50.842;6.084;2022-12-05T14:02:51;34.05;;;20.60;;
66143;SDS011;52947;50.842;6.084;2022-12-05T14:05:40;29.75;;;18.45;;
66143;SDS011;52947;50.842;6.084;2022-12-05T14:11:19;24.38;;;15.02;;
66143;SDS011;52947;50.842;6.084;2022-12-05T14:13:47;21.88;;;14.10;;
66143;SDS011;52947;50.842;6.084;2022-12-05T14:25:25;22.13;;;14.50;;
66143;SDS011;52947;50.842;6.084;2022-12-05T14:28:04;23.67;;;15.07;;
66143;SDS011;52947;50.842;6.084;2022-12-05T14:30:50;21.95;;;13.93;;
66143;SDS011;52947;50.842;6.084;2022-12-05T14:33:32;22.90;;;13.25;;
66143;SDS011;52947;50.842;6.084;2022-12-05T14:36:03;19.05;;;13.23;;
66143;SDS011;52947;50.842;6.084;2022-12-05T14:38:35;20.63;;;13.93;;
66143;SDS011;52947;50.842;6.084;2022-12-05T14:41:10;21.40;;;14.25;;
66143;SDS011;52947;50.842;6.084;2022-12-05T14:43:42;23.67;;;16.13;;
66143;SDS011;52947;50.842;6.084;2022-12-05T14:46:14;23.70;;;15.10;;
66143;SDS011;52947;50.842;6.084;2022-12-05T14:48:45;23.13;;;13.88;;
66143;SDS011;52947;50.842;6.084;2022-12-05T14:54:12;23.40;;;14.35;;
66143;SDS011;52947;50.842;6.084;2022-12-05T14:56:43;18.95;;;12.55;;
66143;SDS011;52947;50.842;6.084;2022-12-05T14:59:16;17.58;;;12.90;;
66143;SDS011;52947;50.842;6.084;2022-12-05T15:01:50;19.98;;;12.75;;
66143;SDS011;52947;50.842;6.084;2022-12-05T15:04:22;17.90;;;11.88;;
66143;SDS011;52947;50.842;6.084;2022-12-05T15:06:58;22.50;;;14.00;;
66143;SDS011;52947;50.842;6.084;2022-12-05T15:12:24;16.55;;;12.38;;
66143;SDS011;52947;50.842;6.084;2022-12-05T15:15:04;20.10;;;13.30;;
66143;SDS011;52947;50.842;6.084;2022-12-05T15:17:37;25.67;;;16.52;;
66143;SDS011;52947;50.842;6.084;2022-12-05T15:20:11;30.17;;;19.30;;
66143;SDS011;52947;50.842;6.084;2022-12-05T15:22:45;23.38;;;15.27;;
66143;SDS011;52947;50.842;6.084;2022-12-05T15:25:17;27.48;;;20.38;;
66143;SDS011;52947;50.842;6.084;2022-12-05T15:27:52;26.10;;;18.80;;